sensor_id;sensor_type;location;lat;lon;timestamp;P1;durP1;ratioP1;P2;durP2;ratioP2
9342;SDS011;4710;51.382;7.244;2022-09-03T00:01:00;1.60;;;1.10;;
9342;SDS011;4710;51.382;7.244;2022-09-03T00:03:42;1.20;;;1.20;;
9342;SDS011;4710;51.382;7.244;2022-09-03T00:06:33;1.20;;;1.10;;
9342;SDS011;4710;51.382;7.244;2022-09-03T00:09:31;1.70;;;1.10;;
9342;SDS011;4710;51.382;7.244;2022-09-03T00:12:16;2.60;;;1.40;;
9342;SDS011;4710;51.382;7.244;2022-09-03T00:15:12;1.55;;;1.33;;
9342;SDS011;4710;51.382;7.244;2022-09-03T00:18:01;2.15;;;1.30;;
9342;SDS011;4710;51.382;7.244;2022-09-03T00:20:48;1.30;;;1.30;;
9342;SDS011;4710;51.382;7.244;2022-09-03T00:23:29;2.05;;;1.20;;
9342;SDS011;4710;51.382;7.244;2022-09-03T00:26:17;1.15;;;1.10;;
9342;SDS011;4710;51.382;7.244;2022-09-03T00:28:58;1.37;;;1.20;;
9342;SDS011;4710;51.382;7.244;2022-09-03T00:31:40;1.30;;;1.10;;
9342;SDS011;4710;51.382;7.244;2022-09-03T00:34:35;2.85;;;1.45;;
9342;SDS011;4710;51.382;7.244;2022-09-03T00:37:20;1.20;;;1.10;;
9342;SDS011;4710;51.382;7.244;2022-09-03T00:40:04;1.48;;;1.37;;
9342;SDS011;4710;51.382;7.244;2022-09-03T00:42:57;1.10;;;1.10;;
9342;SDS011;4710;51.382;7.244;2022-09-03T00:45:39;1.30;;;1.20;;
9342;SDS011;4710;51.382;7.244;2022-09-03T00:48:38;1.10;;;1.10;;
9342;SDS011;4710;51.382;7.244;2022-09-03T00:51:20;1.20;;;1.10;;
9342;SDS011;4710;51.382;7.244;2022-09-03T00:54:11;13.40;;;1.80;;
9342;SDS011;4710;51.382;7.244;2022-09-03T00:56:56;1.60;;;1.20;;
9342;SDS011;4710;51.382;7.244;2022-09-03T00:59:42;2.20;;;1.12;;
9342;SDS011;4710;51.382;7.244;2022-09-03T01:02:26;2.20;;;1.20;;
9342;SDS011;4710;51.382;7.244;2022-09-03T01:05:10;1.02;;;1.02;;
9342;SDS011;4710;51.382;7.244;2022-09-03T01:14:02;1.10;;;1.10;;
9342;SDS011;4710;51.382;7.244;2022-09-03T01:17:08;1.20;;;1.10;;
9342;SDS011;4710;51.382;7.244;2022-09-03T01:19:57;1.87;;;1.10;;
9342;SDS011;4710;51.382;7.244;2022-09-03T01:25:48;1.50;;;1.02;;
9342;SDS011;4710;51.382;7.244;2022-09-03T01:28:32;1.05;;;1.05;;
9342;SDS011;4710;51.382;7.244;2022-09-03T01:31:21;1.17;;;1.10;;
9342;SDS011;4710;51.382;7.244;2022-09-03T01:37:04;1.08;;;0.98;;
9342;SDS011;4710;51.382;7.244;2022-09-03T01:39:59;1.95;;;1.17;;
9342;SDS011;4710;51.382;7.244;2022-09-03T01:42:54;2.45;;;1.20;;
9342;SDS011;4710;51.382;7.244;2022-09-03T01:48:38;1.35;;;1.25;;
9342;SDS011;4710;51.382;7.244;2022-09-03T01:51:20;1.33;;;0.90;;
9342;SDS011;4710;51.382;7.244;2022-09-03T01:57:17;1.17;;;1.10;;
9342;SDS011;4710;51.382;7.244;2022-09-03T01:59:58;3.60;;;1.02;;
9342;SDS011;4710;51.382;7.244;2022-09-03T02:02:43;1.08;;;1.08;;
9342;SDS011;4710;51.382;7.244;2022-09-03T02:05:24;3.50;;;1.17;;
9342;SDS011;4710;51.382;7.244;2022-09-03T02:08:09;1.10;;;1.10;;
9342;SDS011;4710;51.382;7.244;2022-09-03T02:10:54;1.30;;;1.20;;
9342;SDS011;4710;51.382;7.244;2022-09-03T02:13:39;1.10;;;1.10;;
9342;SDS011;4710;51.382;7.244;2022-09-03T02:16:22;1.40;;;1.10;;
9342;SDS011;4710;51.382;7.244;2022-09-03T02:19:06;1.20;;;1.10;;
9342;SDS011;4710;51.382;7.244;2022-09-03T02:21:50;1.25;;;1.00;;
9342;SDS011;4710;51.382;7.244;2022-09-03T02:24:35;1.70;;;1.17;;
9342;SDS011;4710;51.382;7.244;2022-09-03T02:27:14;1.05;;;0.95;;
9342;SDS011;4710;51.382;7.244;2022-09-03T02:29:53;0.90;;;0.90;;
9342;SDS011;4710;51.382;7.244;2022-09-03T02:32:32;1.50;;;1.27;;
9342;SDS011;4710;51.382;7.244;2022-09-03T02:35:13;1.12;;;1.12;;
9342;SDS011;4710;51.382;7.244;2022-09-03T02:37:50;1.00;;;1.00;;
9342;SDS011;4710;51.382;7.244;2022-09-03T02:40:32;1.10;;;1.10;;
9342;SDS011;4710;51.382;7.244;2022-09-03T02:43:14;1.10;;;1.10;;
9342;SDS011;4710;51.382;7.244;2022-09-03T02:45:54;1.30;;;1.20;;
9342;SDS011;4710;51.382;7.244;2022-09-03T02:48:34;2.72;;;1.00;;
9342;SDS011;4710;51.382;7.244;2022-09-03T02:51:15;0.90;;;0.90;;
9342;SDS011;4710;51.382;7.244;2022-09-03T02:53:54;1.40;;;1.00;;
9342;SDS011;4710;51.382;7.244;2022-09-03T02:56:31;1.10;;;1.10;;
9342;SDS011;4710;51.382;7.244;2022-09-03T02:59:08;1.10;;;1.10;;
9342;SDS011;4710;51.382;7.244;2022-09-03T03:01:45;2.70;;;1.10;;
9342;SDS011;4710;51.382;7.244;2022-09-03T03:04:30;1.10;;;1.10;;
9342;SDS011;4710;51.382;7.244;2022-09-03T03:07:17;2.00;;;1.00;;
9342;SDS011;4710;51.382;7.244;2022-09-03T03:09:54;1.05;;;1.00;;
9342;SDS011;4710;51.382;7.244;2022-09-03T03:12:38;1.12;;;1.12;;
9342;SDS011;4710;51.382;7.244;2022-09-03T03:15:19;1.12;;;1.10;;
9342;SDS011;4710;51.382;7.244;2022-09-03T03:18:00;1.02;;;1.00;;
9342;SDS011;4710;51.382;7.244;2022-09-03T03:20:43;1.00;;;1.00;;
9342;SDS011;4710;51.382;7.244;2022-09-03T03:23:24;1.20;;;1.10;;
9342;SDS011;4710;51.382;7.244;2022-09-03T03:26:03;1.10;;;1.10;;
9342;SDS011;4710;51.382;7.244;2022-09-03T03:28:44;1.00;;;1.00;;
9342;SDS011;4710;51.382;7.244;2022-09-03T03:31:24;1.30;;;1.00;;
9342;SDS011;4710;51.382;7.244;2022-09-03T03:34:06;1.80;;;1.10;;
9342;SDS011;4710;51.382;7.244;2022-09-03T03:36:46;1.10;;;1.10;;
9342;SDS011;4710;51.382;7.244;2022-09-03T03:39:23;1.10;;;1.10;;
9342;SDS011;4710;51.382;7.244;2022-09-03T03:42:02;1.23;;;1.00;;
9342;SDS011;4710;51.382;7.244;2022-09-03T03:44:39;1.10;;;1.10;;
9342;SDS011;4710;51.382;7.244;2022-09-03T03:47:19;1.70;;;1.05;;
9342;SDS011;4710;51.382;7.244;2022-09-03T03:49:59;1.30;;;1.10;;
9342;SDS011;4710;51.382;7.244;2022-09-03T03:52:37;1.02;;;1.02;;
9342;SDS011;4710;51.382;7.244;2022-09-03T03:55:17;2.80;;;1.40;;
9342;SDS011;4710;51.382;7.244;2022-09-03T03:57:57;1.10;;;1.10;;
9342;SDS011;4710;51.382;7.244;2022-09-03T04:00:36;1.62;;;1.10;;
9342;SDS011;4710;51.382;7.244;2022-09-03T04:03:20;4.70;;;1.20;;
9342;SDS011;4710;51.382;7.244;2022-09-03T04:06:01;1.60;;;1.20;;
9342;SDS011;4710;51.382;7.244;2022-09-03T04:08:44;1.20;;;1.00;;
9342;SDS011;4710;51.382;7.244;2022-09-03T04:13:12;1.10;;;1.10;;
9342;SDS011;4710;51.382;7.244;2022-09-03T04:15:58;5.30;;;1.70;;
9342;SDS011;4710;51.382;7.244;2022-09-03T04:18:33;1.00;;;1.00;;
9342;SDS011;4710;51.382;7.244;2022-09-03T04:21:11;4.47;;;1.10;;
9342;SDS011;4710;51.382;7.244;2022-09-03T04:23:51;1.00;;;1.00;;
9342;SDS011;4710;51.382;7.244;2022-09-03T04:26:32;2.40;;;1.10;;
9342;SDS011;4710;51.382;7.244;2022-09-03T04:29:10;1.50;;;1.00;;
9342;SDS011;4710;51.382;7.244;2022-09-03T04:31:48;1.00;;;0.90;;
9342;SDS011;4710;51.382;7.244;2022-09-03T04:34:31;2.20;;;1.27;;
9342;SDS011;4710;51.382;7.244;2022-09-03T04:37:10;1.77;;;1.00;;
9342;SDS011;4710;51.382;7.244;2022-09-03T04:39:49;1.55;;;1.00;;
9342;SDS011;4710;51.382;7.244;2022-09-03T04:42:31;2.17;;;1.10;;
9342;SDS011;4710;51.382;7.244;2022-09-03T04:45:11;1.77;;;1.00;;
9342;SDS011;4710;51.382;7.244;2022-09-03T04:47:55;1.37;;;1.17;;
9342;SDS011;4710;51.382;7.244;2022-09-03T04:51:02;0.80;;;0.80;;
9342;SDS011;4710;51.382;7.244;2022-09-03T04:53:41;1.40;;;1.00;;
9342;SDS011;4710;51.382;7.244;2022-09-03T04:56:24;0.98;;;0.98;;
9342;SDS011;4710;51.382;7.244;2022-09-03T04:59:05;1.00;;;1.00;;
9342;SDS011;4710;51.382;7.244;2022-09-03T05:01:46;0.90;;;0.90;;
9342;SDS011;4710;51.382;7.244;2022-09-03T05:04:23;1.45;;;1.00;;
9342;SDS011;4710;51.382;7.244;2022-09-03T05:07:01;0.95;;;0.95;;
9342;SDS011;4710;51.382;7.244;2022-09-03T05:09:46;1.90;;;1.10;;
9342;SDS011;4710;51.382;7.244;2022-09-03T05:12:32;1.60;;;1.12;;
9342;SDS011;4710;51.382;7.244;2022-09-03T05:15:12;1.00;;;1.00;;
9342;SDS011;4710;51.382;7.244;2022-09-03T05:17:49;1.75;;;0.95;;
9342;SDS011;4710;51.382;7.244;2022-09-03T05:20:31;1.02;;;1.02;;
9342;SDS011;4710;51.382;7.244;2022-09-03T05:23:16;1.67;;;1.10;;
9342;SDS011;4710;51.382;7.244;2022-09-03T05:25:58;0.90;;;0.90;;
9342;SDS011;4710;51.382;7.244;2022-09-03T05:28:39;1.25;;;1.10;;
9342;SDS011;4710;51.382;7.244;2022-09-03T05:31:28;2.67;;;1.10;;
9342;SDS011;4710;51.382;7.244;2022-09-03T05:34:09;1.10;;;1.10;;
9342;SDS011;4710;51.382;7.244;2022-09-03T05:36:47;1.00;;;1.00;;
9342;SDS011;4710;51.382;7.244;2022-09-03T05:39:33;2.60;;;1.40;;
9342;SDS011;4710;51.382;7.244;2022-09-03T05:42:13;1.27;;;1.17;;
9342;SDS011;4710;51.382;7.244;2022-09-03T05:44:51;1.30;;;1.20;;
9342;SDS011;4710;51.382;7.244;2022-09-03T05:47:29;2.25;;;1.23;;
9342;SDS011;4710;51.382;7.244;2022-09-03T05:50:17;2.00;;;1.05;;
9342;SDS011;4710;51.382;7.244;2022-09-03T05:53:00;2.20;;;1.15;;
9342;SDS011;4710;51.382;7.244;2022-09-03T05:55:37;1.30;;;1.20;;
9342;SDS011;4710;51.382;7.244;2022-09-03T05:58:17;1.75;;;1.00;;
9342;SDS011;4710;51.382;7.244;2022-09-03T06:04:05;2.60;;;1.10;;
9342;SDS011;4710;51.382;7.244;2022-09-03T06:06:53;1.55;;;1.05;;
9342;SDS011;4710;51.382;7.244;2022-09-03T06:09:35;0.95;;;0.95;;
9342;SDS011;4710;51.382;7.244;2022-09-03T06:12:18;3.60;;;1.20;;
9342;SDS011;4710;51.382;7.244;2022-09-03T06:14:58;1.73;;;1.00;;
9342;SDS011;4710;51.382;7.244;2022-09-03T06:17:37;4.87;;;1.20;;
9342;SDS011;4710;51.382;7.244;2022-09-03T06:20:15;2.70;;;1.12;;
9342;SDS011;4710;51.382;7.244;2022-09-03T06:22:58;1.80;;;1.10;;
9342;SDS011;4710;51.382;7.244;2022-09-03T06:25:38;1.65;;;1.05;;
9342;SDS011;4710;51.382;7.244;2022-09-03T06:28:16;1.67;;;1.30;;
9342;SDS011;4710;51.382;7.244;2022-09-03T06:30:56;1.00;;;1.00;;
9342;SDS011;4710;51.382;7.244;2022-09-03T06:33:35;1.42;;;1.10;;
9342;SDS011;4710;51.382;7.244;2022-09-03T06:37:21;1.93;;;1.00;;
9342;SDS011;4710;51.382;7.244;2022-09-03T06:39:59;1.92;;;0.90;;
9342;SDS011;4710;51.382;7.244;2022-09-03T06:42:37;1.40;;;1.10;;
9342;SDS011;4710;51.382;7.244;2022-09-03T06:45:24;1.40;;;1.00;;
9342;SDS011;4710;51.382;7.244;2022-09-03T06:48:04;1.12;;;1.12;;
9342;SDS011;4710;51.382;7.244;2022-09-03T06:50:52;4.28;;;1.23;;
9342;SDS011;4710;51.382;7.244;2022-09-03T06:53:33;1.50;;;1.23;;
9342;SDS011;4710;51.382;7.244;2022-09-03T06:56:15;1.33;;;1.10;;
9342;SDS011;4710;51.382;7.244;2022-09-03T06:58:56;1.10;;;1.10;;
9342;SDS011;4710;51.382;7.244;2022-09-03T07:01:37;1.00;;;0.90;;
9342;SDS011;4710;51.382;7.244;2022-09-03T07:04:22;1.10;;;1.08;;
9342;SDS011;4710;51.382;7.244;2022-09-03T07:07:04;1.50;;;1.00;;
9342;SDS011;4710;51.382;7.244;2022-09-03T07:09:53;2.40;;;1.15;;
9342;SDS011;4710;51.382;7.244;2022-09-03T07:12:33;3.22;;;1.27;;
9342;SDS011;4710;51.382;7.244;2022-09-03T07:15:14;1.73;;;1.40;;
9342;SDS011;4710;51.382;7.244;2022-09-03T07:17:59;4.90;;;1.42;;
9342;SDS011;4710;51.382;7.244;2022-09-03T07:20:40;1.92;;;1.30;;
9342;SDS011;4710;51.382;7.244;2022-09-03T07:23:23;5.03;;;1.20;;
9342;SDS011;4710;51.382;7.244;2022-09-03T07:26:05;2.35;;;1.10;;
9342;SDS011;4710;51.382;7.244;2022-09-03T07:28:47;1.33;;;1.17;;
9342;SDS011;4710;51.382;7.244;2022-09-03T07:31:26;1.00;;;1.00;;
9342;SDS011;4710;51.382;7.244;2022-09-03T07:34:06;1.10;;;1.10;;
9342;SDS011;4710;51.382;7.244;2022-09-03T07:36:46;1.60;;;1.10;;
9342;SDS011;4710;51.382;7.244;2022-09-03T07:39:31;1.48;;;1.10;;
9342;SDS011;4710;51.382;7.244;2022-09-03T07:42:17;1.02;;;1.00;;
9342;SDS011;4710;51.382;7.244;2022-09-03T07:44:58;1.02;;;1.02;;
9342;SDS011;4710;51.382;7.244;2022-09-03T07:47:45;1.30;;;0.90;;
9342;SDS011;4710;51.382;7.244;2022-09-03T07:50:29;1.30;;;1.20;;
9342;SDS011;4710;51.382;7.244;2022-09-03T07:53:15;1.20;;;1.20;;
9342;SDS011;4710;51.382;7.244;2022-09-03T07:56:00;1.62;;;1.20;;
9342;SDS011;4710;51.382;7.244;2022-09-03T07:58:44;1.00;;;1.00;;
9342;SDS011;4710;51.382;7.244;2022-09-03T08:01:29;1.10;;;1.08;;
9342;SDS011;4710;51.382;7.244;2022-09-03T08:04:17;4.90;;;1.50;;
9342;SDS011;4710;51.382;7.244;2022-09-03T08:07:00;2.97;;;1.20;;
9342;SDS011;4710;51.382;7.244;2022-09-03T08:09:43;1.67;;;1.10;;
9342;SDS011;4710;51.382;7.244;2022-09-03T08:12:21;3.60;;;1.30;;
9342;SDS011;4710;51.382;7.244;2022-09-03T08:15:02;2.00;;;1.90;;
9342;SDS011;4710;51.382;7.244;2022-09-03T08:17:42;2.03;;;1.83;;
9342;SDS011;4710;51.382;7.244;2022-09-03T08:20:21;4.62;;;1.40;;
9342;SDS011;4710;51.382;7.244;2022-09-03T08:23:00;3.20;;;1.10;;
9342;SDS011;4710;51.382;7.244;2022-09-03T08:25:40;4.37;;;1.50;;
9342;SDS011;4710;51.382;7.244;2022-09-03T08:28:24;1.30;;;1.30;;
9342;SDS011;4710;51.382;7.244;2022-09-03T08:33:50;1.95;;;1.40;;
9342;SDS011;4710;51.382;7.244;2022-09-03T08:36:30;1.85;;;1.30;;
9342;SDS011;4710;51.382;7.244;2022-09-03T08:39:10;1.27;;;1.17;;
9342;SDS011;4710;51.382;7.244;2022-09-03T08:42:03;6.68;;;1.50;;
9342;SDS011;4710;51.382;7.244;2022-09-03T08:44:45;2.10;;;1.50;;
9342;SDS011;4710;51.382;7.244;2022-09-03T08:47:32;4.28;;;1.40;;
9342;SDS011;4710;51.382;7.244;2022-09-03T08:50:24;1.30;;;1.30;;
9342;SDS011;4710;51.382;7.244;2022-09-03T08:56:06;1.30;;;1.20;;
9342;SDS011;4710;51.382;7.244;2022-09-03T08:58:46;1.30;;;1.30;;
9342;SDS011;4710;51.382;7.244;2022-09-03T09:01:31;2.50;;;1.30;;
9342;SDS011;4710;51.382;7.244;2022-09-03T09:04:18;2.08;;;1.40;;
9342;SDS011;4710;51.382;7.244;2022-09-03T09:09:49;2.37;;;1.40;;
9342;SDS011;4710;51.382;7.244;2022-09-03T09:12:38;1.50;;;1.40;;
9342;SDS011;4710;51.382;7.244;2022-09-03T09:15:27;2.25;;;1.40;;
9342;SDS011;4710;51.382;7.244;2022-09-03T09:18:09;1.60;;;1.30;;
9342;SDS011;4710;51.382;7.244;2022-09-03T09:20:58;1.58;;;1.45;;
9342;SDS011;4710;51.382;7.244;2022-09-03T09:23:49;1.60;;;1.50;;
9342;SDS011;4710;51.382;7.244;2022-09-03T09:26:28;1.77;;;1.40;;
9342;SDS011;4710;51.382;7.244;2022-09-03T09:29:07;1.40;;;1.30;;
9342;SDS011;4710;51.382;7.244;2022-09-03T09:31:48;3.00;;;1.40;;
9342;SDS011;4710;51.382;7.244;2022-09-03T09:34:26;1.58;;;1.48;;
9342;SDS011;4710;51.382;7.244;2022-09-03T09:37:10;1.65;;;1.50;;
9342;SDS011;4710;51.382;7.244;2022-09-03T09:39:53;3.20;;;1.33;;
9342;SDS011;4710;51.382;7.244;2022-09-03T09:42:36;1.77;;;1.50;;
9342;SDS011;4710;51.382;7.244;2022-09-03T09:45:13;3.58;;;1.60;;
9342;SDS011;4710;51.382;7.244;2022-09-03T09:47:53;1.37;;;1.37;;
9342;SDS011;4710;51.382;7.244;2022-09-03T09:50:33;1.95;;;1.40;;
9342;SDS011;4710;51.382;7.244;2022-09-03T09:53:17;1.60;;;1.60;;
9342;SDS011;4710;51.382;7.244;2022-09-03T09:56:00;2.35;;;1.40;;
9342;SDS011;4710;51.382;7.244;2022-09-03T09:58:40;3.67;;;1.50;;
9342;SDS011;4710;51.382;7.244;2022-09-03T10:01:21;2.35;;;1.60;;
9342;SDS011;4710;51.382;7.244;2022-09-03T10:04:08;1.58;;;1.40;;
9342;SDS011;4710;51.382;7.244;2022-09-03T10:06:53;1.62;;;1.52;;
9342;SDS011;4710;51.382;7.244;2022-09-03T10:09:37;2.17;;;1.60;;
9342;SDS011;4710;51.382;7.244;2022-09-03T10:12:25;1.73;;;1.62;;
9342;SDS011;4710;51.382;7.244;2022-09-03T10:15:09;1.50;;;1.50;;
9342;SDS011;4710;51.382;7.244;2022-09-03T10:18:07;1.85;;;1.45;;
9342;SDS011;4710;51.382;7.244;2022-09-03T10:20:50;1.30;;;1.30;;
9342;SDS011;4710;51.382;7.244;2022-09-03T10:26:28;1.70;;;1.60;;
9342;SDS011;4710;51.382;7.244;2022-09-03T10:29:08;1.80;;;1.70;;
9342;SDS011;4710;51.382;7.244;2022-09-03T10:34:50;1.62;;;1.52;;
9342;SDS011;4710;51.382;7.244;2022-09-03T10:40:39;1.92;;;1.70;;
9342;SDS011;4710;51.382;7.244;2022-09-03T10:43:25;2.17;;;1.40;;
9342;SDS011;4710;51.382;7.244;2022-09-03T10:46:23;3.45;;;1.70;;
9342;SDS011;4710;51.382;7.244;2022-09-03T10:49:11;1.60;;;1.50;;
9342;SDS011;4710;51.382;7.244;2022-09-03T10:52:09;2.08;;;1.65;;
9342;SDS011;4710;51.382;7.244;2022-09-03T10:54:52;1.50;;;1.50;;
9342;SDS011;4710;51.382;7.244;2022-09-03T10:57:38;1.62;;;1.50;;
9342;SDS011;4710;51.382;7.244;2022-09-03T11:00:18;2.12;;;1.67;;
9342;SDS011;4710;51.382;7.244;2022-09-03T11:03:14;4.12;;;1.60;;
9342;SDS011;4710;51.382;7.244;2022-09-03T11:06:10;3.95;;;1.60;;
9342;SDS011;4710;51.382;7.244;2022-09-03T11:08:59;1.50;;;1.50;;
9342;SDS011;4710;51.382;7.244;2022-09-03T11:11:41;1.50;;;1.40;;
9342;SDS011;4710;51.382;7.244;2022-09-03T11:14:26;1.55;;;1.45;;
9342;SDS011;4710;51.382;7.244;2022-09-03T11:17:20;5.37;;;1.70;;
9342;SDS011;4710;51.382;7.244;2022-09-03T11:20:20;1.70;;;1.60;;
9342;SDS011;4710;51.382;7.244;2022-09-03T11:23:02;2.80;;;1.75;;
9342;SDS011;4710;51.382;7.244;2022-09-03T11:25:46;6.22;;;1.42;;
9342;SDS011;4710;51.382;7.244;2022-09-03T11:28:35;1.55;;;1.50;;
9342;SDS011;4710;51.382;7.244;2022-09-03T11:34:27;2.97;;;1.70;;
9342;SDS011;4710;51.382;7.244;2022-09-03T11:37:18;1.70;;;1.62;;
9342;SDS011;4710;51.382;7.244;2022-09-03T11:40:12;1.60;;;1.50;;
9342;SDS011;4710;51.382;7.244;2022-09-03T11:43:04;2.15;;;1.70;;
9342;SDS011;4710;51.382;7.244;2022-09-03T11:45:42;1.80;;;1.70;;
9342;SDS011;4710;51.382;7.244;2022-09-03T11:48:33;2.97;;;1.60;;
9342;SDS011;4710;51.382;7.244;2022-09-03T11:51:32;3.60;;;1.60;;
9342;SDS011;4710;51.382;7.244;2022-09-03T12:04:52;1.60;;;1.55;;
9342;SDS011;4710;51.382;7.244;2022-09-03T12:13:50;3.35;;;1.90;;
9342;SDS011;4710;51.382;7.244;2022-09-03T12:27:04;2.12;;;1.80;;
9342;SDS011;4710;51.382;7.244;2022-09-03T12:29:49;1.90;;;1.80;;
9342;SDS011;4710;51.382;7.244;2022-09-03T12:32:28;1.90;;;1.70;;
9342;SDS011;4710;51.382;7.244;2022-09-03T12:35:13;1.85;;;1.70;;
9342;SDS011;4710;51.382;7.244;2022-09-03T12:38:01;1.70;;;1.60;;
9342;SDS011;4710;51.382;7.244;2022-09-03T12:51:13;1.60;;;1.50;;
9342;SDS011;4710;51.382;7.244;2022-09-03T12:53:53;1.65;;;1.55;;
9342;SDS011;4710;51.382;7.244;2022-09-03T12:56:30;1.90;;;1.70;;
9342;SDS011;4710;51.382;7.244;2022-09-03T12:59:12;3.65;;;1.80;;
9342;SDS011;4710;51.382;7.244;2022-09-03T13:01:52;2.60;;;1.80;;
9342;SDS011;4710;51.382;7.244;2022-09-03T13:04:35;1.87;;;1.77;;
9342;SDS011;4710;51.382;7.244;2022-09-03T13:07:23;1.85;;;1.85;;
9342;SDS011;4710;51.382;7.244;2022-09-03T13:10:24;2.40;;;1.90;;
9342;SDS011;4710;51.382;7.244;2022-09-03T13:16:11;3.03;;;1.90;;
9342;SDS011;4710;51.382;7.244;2022-09-03T13:32:29;2.30;;;1.80;;
9342;SDS011;4710;51.382;7.244;2022-09-03T13:35:39;1.90;;;1.80;;
9342;SDS011;4710;51.382;7.244;2022-09-03T13:38:35;1.95;;;1.85;;
9342;SDS011;4710;51.382;7.244;2022-09-03T13:41:31;2.10;;;1.90;;
9342;SDS011;4710;51.382;7.244;2022-09-03T13:44:27;3.53;;;2.08;;
9342;SDS011;4710;51.382;7.244;2022-09-03T13:47:27;1.90;;;1.85;;
9342;SDS011;4710;51.382;7.244;2022-09-03T13:50:16;2.08;;;1.90;;
9342;SDS011;4710;51.382;7.244;2022-09-03T13:53:02;2.10;;;2.00;;
9342;SDS011;4710;51.382;7.244;2022-09-03T13:55:47;2.08;;;1.80;;
9342;SDS011;4710;51.382;7.244;2022-09-03T13:58:27;1.90;;;1.80;;
9342;SDS011;4710;51.382;7.244;2022-09-03T14:01:10;1.90;;;1.80;;
9342;SDS011;4710;51.382;7.244;2022-09-03T14:03:56;2.00;;;1.90;;
9342;SDS011;4710;51.382;7.244;2022-09-03T14:06:40;1.80;;;1.80;;
9342;SDS011;4710;51.382;7.244;2022-09-03T14:09:27;3.53;;;1.90;;
9342;SDS011;4710;51.382;7.244;2022-09-03T14:15:25;1.80;;;1.80;;
9342;SDS011;4710;51.382;7.244;2022-09-03T14:18:15;1.77;;;1.77;;
9342;SDS011;4710;51.382;7.244;2022-09-03T14:21:23;1.90;;;1.80;;
9342;SDS011;4710;51.382;7.244;2022-09-03T14:24:27;1.85;;;1.75;;
9342;SDS011;4710;51.382;7.244;2022-09-03T14:27:06;1.80;;;1.80;;
9342;SDS011;4710;51.382;7.244;2022-09-03T14:29:49;2.05;;;1.95;;
9342;SDS011;4710;51.382;7.244;2022-09-03T14:32:38;2.33;;;1.83;;
9342;SDS011;4710;51.382;7.244;2022-09-03T14:35:25;1.92;;;1.83;;
9342;SDS011;4710;51.382;7.244;2022-09-03T14:46:55;20.27;;;3.00;;
9342;SDS011;4710;51.382;7.244;2022-09-03T14:58:34;1.70;;;1.70;;
9342;SDS011;4710;51.382;7.244;2022-09-03T15:02:57;1.80;;;1.80;;
9342;SDS011;4710;51.382;7.244;2022-09-03T15:05:41;1.77;;;1.67;;
9342;SDS011;4710;51.382;7.244;2022-09-03T15:11:47;1.80;;;1.80;;
9342;SDS011;4710;51.382;7.244;2022-09-03T15:14:48;4.70;;;2.10;;
9342;SDS011;4710;51.382;7.244;2022-09-03T15:20:35;1.95;;;1.85;;
9342;SDS011;4710;51.382;7.244;2022-09-03T15:44:17;1.87;;;1.80;;
9342;SDS011;4710;51.382;7.244;2022-09-03T15:47:02;1.80;;;1.80;;
9342;SDS011;4710;51.382;7.244;2022-09-03T16:00:15;1.95;;;1.95;;
9342;SDS011;4710;51.382;7.244;2022-09-03T16:03:00;1.60;;;1.60;;
9342;SDS011;4710;51.382;7.244;2022-09-03T16:05:54;1.80;;;1.70;;
9342;SDS011;4710;51.382;7.244;2022-09-03T16:08:43;1.70;;;1.70;;
9342;SDS011;4710;51.382;7.244;2022-09-03T16:14:22;1.90;;;1.80;;
9342;SDS011;4710;51.382;7.244;2022-09-03T16:20:06;1.60;;;1.60;;
9342;SDS011;4710;51.382;7.244;2022-09-03T16:22:50;1.83;;;1.73;;
9342;SDS011;4710;51.382;7.244;2022-09-03T16:25:51;2.00;;;1.90;;
9342;SDS011;4710;51.382;7.244;2022-09-03T16:28:47;2.80;;;1.73;;
9342;SDS011;4710;51.382;7.244;2022-09-03T16:31:37;1.90;;;1.80;;
9342;SDS011;4710;51.382;7.244;2022-09-03T16:34:30;1.80;;;1.70;;
9342;SDS011;4710;51.382;7.244;2022-09-03T16:43:23;1.70;;;1.70;;
9342;SDS011;4710;51.382;7.244;2022-09-03T16:46:16;1.70;;;1.70;;
9342;SDS011;4710;51.382;7.244;2022-09-03T16:52:04;1.75;;;1.75;;
9342;SDS011;4710;51.382;7.244;2022-09-03T16:55:21;1.62;;;1.62;;
9342;SDS011;4710;51.382;7.244;2022-09-03T16:58:13;1.70;;;1.70;;
9342;SDS011;4710;51.382;7.244;2022-09-03T17:03:49;1.90;;;1.80;;
9342;SDS011;4710;51.382;7.244;2022-09-03T17:06:46;1.75;;;1.65;;
9342;SDS011;4710;51.382;7.244;2022-09-03T17:20:11;1.90;;;1.80;;
9342;SDS011;4710;51.382;7.244;2022-09-03T17:22:59;1.98;;;1.87;;
9342;SDS011;4710;51.382;7.244;2022-09-03T17:25:57;2.10;;;2.00;;
9342;SDS011;4710;51.382;7.244;2022-09-03T17:28:45;1.67;;;1.60;;
9342;SDS011;4710;51.382;7.244;2022-09-03T17:34:30;2.70;;;2.50;;
9342;SDS011;4710;51.382;7.244;2022-09-03T17:37:17;2.22;;;2.12;;
9342;SDS011;4710;51.382;7.244;2022-09-03T17:40:11;2.03;;;2.00;;
9342;SDS011;4710;51.382;7.244;2022-09-03T17:53:21;2.42;;;2.37;;
9342;SDS011;4710;51.382;7.244;2022-09-03T18:02:31;1.70;;;1.70;;
9342;SDS011;4710;51.382;7.244;2022-09-03T18:05:28;2.65;;;1.67;;
9342;SDS011;4710;51.382;7.244;2022-09-03T18:08:29;1.80;;;1.70;;
9342;SDS011;4710;51.382;7.244;2022-09-03T18:11:10;1.87;;;1.70;;
9342;SDS011;4710;51.382;7.244;2022-09-03T18:19:53;1.75;;;1.75;;
9342;SDS011;4710;51.382;7.244;2022-09-03T18:22:40;1.70;;;1.70;;
9342;SDS011;4710;51.382;7.244;2022-09-03T18:25:32;2.55;;;2.17;;
9342;SDS011;4710;51.382;7.244;2022-09-03T18:28:24;10.15;;;2.62;;
9342;SDS011;4710;51.382;7.244;2022-09-03T18:31:10;2.97;;;2.12;;
9342;SDS011;4710;51.382;7.244;2022-09-03T18:33:54;3.30;;;2.10;;
9342;SDS011;4710;51.382;7.244;2022-09-03T18:36:39;1.92;;;1.83;;
9342;SDS011;4710;51.382;7.244;2022-09-03T18:39:23;1.95;;;1.85;;
9342;SDS011;4710;51.382;7.244;2022-09-03T18:45:02;2.20;;;2.00;;
9342;SDS011;4710;51.382;7.244;2022-09-03T18:48:05;2.58;;;1.80;;
9342;SDS011;4710;51.382;7.244;2022-09-03T18:50:53;1.90;;;1.90;;
9342;SDS011;4710;51.382;7.244;2022-09-03T18:53:38;1.80;;;1.80;;
9342;SDS011;4710;51.382;7.244;2022-09-03T18:56:29;1.60;;;1.60;;
9342;SDS011;4710;51.382;7.244;2022-09-03T19:02:28;2.30;;;2.10;;
9342;SDS011;4710;51.382;7.244;2022-09-03T19:05:22;1.90;;;1.87;;
9342;SDS011;4710;51.382;7.244;2022-09-03T19:08:31;1.75;;;1.65;;
9342;SDS011;4710;51.382;7.244;2022-09-03T19:14:11;2.45;;;1.73;;
9342;SDS011;4710;51.382;7.244;2022-09-03T19:16:58;2.00;;;1.80;;
9342;SDS011;4710;51.382;7.244;2022-09-03T19:19:49;1.67;;;1.60;;
9342;SDS011;4710;51.382;7.244;2022-09-03T19:22:37;1.83;;;1.73;;
9342;SDS011;4710;51.382;7.244;2022-09-03T19:25:19;1.90;;;1.90;;
9342;SDS011;4710;51.382;7.244;2022-09-03T19:28:17;1.77;;;1.67;;
9342;SDS011;4710;51.382;7.244;2022-09-03T19:34:12;1.70;;;1.60;;
9342;SDS011;4710;51.382;7.244;2022-09-03T19:46:04;2.00;;;1.90;;
9342;SDS011;4710;51.382;7.244;2022-09-03T19:48:58;1.90;;;1.90;;
9342;SDS011;4710;51.382;7.244;2022-09-03T19:52:00;1.70;;;1.60;;
9342;SDS011;4710;51.382;7.244;2022-09-03T19:54:45;1.50;;;1.50;;
9342;SDS011;4710;51.382;7.244;2022-09-03T19:57:28;2.10;;;1.70;;
9342;SDS011;4710;51.382;7.244;2022-09-03T20:00:11;1.70;;;1.70;;
9342;SDS011;4710;51.382;7.244;2022-09-03T20:02:55;1.60;;;1.60;;
9342;SDS011;4710;51.382;7.244;2022-09-03T20:05:41;2.45;;;2.35;;
9342;SDS011;4710;51.382;7.244;2022-09-03T20:08:25;3.50;;;3.30;;
9342;SDS011;4710;51.382;7.244;2022-09-03T20:11:15;3.60;;;3.45;;
9342;SDS011;4710;51.382;7.244;2022-09-03T20:14:01;12.73;;;12.02;;
9342;SDS011;4710;51.382;7.244;2022-09-03T20:19:58;14.38;;;13.52;;
9342;SDS011;4710;51.382;7.244;2022-09-03T20:22:39;7.57;;;7.28;;
9342;SDS011;4710;51.382;7.244;2022-09-03T20:28:18;4.50;;;3.75;;
9342;SDS011;4710;51.382;7.244;2022-09-03T20:31:10;4.20;;;4.00;;
9342;SDS011;4710;51.382;7.244;2022-09-03T20:34:01;5.05;;;4.85;;
9342;SDS011;4710;51.382;7.244;2022-09-03T20:37:02;5.10;;;4.90;;
9342;SDS011;4710;51.382;7.244;2022-09-03T20:39:47;3.28;;;3.17;;
9342;SDS011;4710;51.382;7.244;2022-09-03T20:45:25;2.78;;;2.67;;
9342;SDS011;4710;51.382;7.244;2022-09-03T20:48:19;2.85;;;2.75;;
9342;SDS011;4710;51.382;7.244;2022-09-03T20:51:08;2.35;;;2.25;;
9342;SDS011;4710;51.382;7.244;2022-09-03T20:54:02;1.90;;;1.90;;
9342;SDS011;4710;51.382;7.244;2022-09-03T20:56:52;1.70;;;1.60;;
9342;SDS011;4710;51.382;7.244;2022-09-03T20:59:40;1.52;;;1.52;;
9342;SDS011;4710;51.382;7.244;2022-09-03T21:02:33;1.50;;;1.50;;
9342;SDS011;4710;51.382;7.244;2022-09-03T21:05:21;2.03;;;1.42;;
9342;SDS011;4710;51.382;7.244;2022-09-03T21:08:06;1.40;;;1.40;;
9342;SDS011;4710;51.382;7.244;2022-09-03T21:10:54;1.77;;;1.70;;